sensor_id;sensor_type;location;lat;lon;timestamp;P1;durP1;ratioP1;P2;durP2;ratioP2
27003;SDS011;14546;47.590;19.022;2023-07-31T00:00:27;4.38;;;3.80;;
27003;SDS011;14546;47.590;19.022;2023-07-31T00:02:54;5.95;;;3.40;;
27003;SDS011;14546;47.590;19.022;2023-07-31T00:05:20;8.98;;;4.55;;
27003;SDS011;14546;47.590;19.022;2023-07-31T00:07:46;6.22;;;4.25;;
27003;SDS011;14546;47.590;19.022;2023-07-31T00:10:12;4.68;;;4.00;;
27003;SDS011;14546;47.590;19.022;2023-07-31T00:12:39;9.00;;;4.47;;
27003;SDS011;14546;47.590;19.022;2023-07-31T00:15:06;6.55;;;4.10;;
27003;SDS011;14546;47.590;19.022;2023-07-31T00:17:32;5.90;;;3.95;;
27003;SDS011;14546;47.590;19.022;2023-07-31T00:19:58;8.10;;;4.20;;
27003;SDS011;14546;47.590;19.022;2023-07-31T00:22:24;9.40;;;4.10;;
27003;SDS011;14546;47.590;19.022;2023-07-31T00:24:50;8.68;;;4.80;;
27003;SDS011;14546;47.590;19.022;2023-07-31T00:27:16;11.98;;;4.85;;
27003;SDS011;14546;47.590;19.022;2023-07-31T00:29:42;6.03;;;4.97;;
27003;SDS011;14546;47.590;19.022;2023-07-31T00:32:08;13.85;;;5.18;;
27003;SDS011;14546;47.590;19.022;2023-07-31T00:34:34;6.63;;;5.03;;
27003;SDS011;14546;47.590;19.022;2023-07-31T00:37:00;7.15;;;5.20;;
27003;SDS011;14546;47.590;19.022;2023-07-31T00:39:26;8.02;;;5.35;;
27003;SDS011;14546;47.590;19.022;2023-07-31T00:41:52;6.45;;;5.75;;
27003;SDS011;14546;47.590;19.022;2023-07-31T00:44:18;6.15;;;5.55;;
27003;SDS011;14546;47.590;19.022;2023-07-31T00:46:44;7.68;;;5.75;;
27003;SDS011;14546;47.590;19.022;2023-07-31T00:49:10;10.80;;;6.07;;
27003;SDS011;14546;47.590;19.022;2023-07-31T00:51:36;9.57;;;5.70;;
27003;SDS011;14546;47.590;19.022;2023-07-31T00:54:02;6.60;;;5.82;;
27003;SDS011;14546;47.590;19.022;2023-07-31T00:56:29;8.73;;;6.15;;
27003;SDS011;14546;47.590;19.022;2023-07-31T00:58:55;9.68;;;7.30;;
27003;SDS011;14546;47.590;19.022;2023-07-31T01:01:21;14.00;;;8.15;;
27003;SDS011;14546;47.590;19.022;2023-07-31T01:03:47;11.30;;;8.10;;
27003;SDS011;14546;47.590;19.022;2023-07-31T01:09:01;11.43;;;8.13;;
27003;SDS011;14546;47.590;19.022;2023-07-31T01:11:28;8.65;;;7.70;;
27003;SDS011;14546;47.590;19.022;2023-07-31T01:13:54;10.65;;;7.65;;
27003;SDS011;14546;47.590;19.022;2023-07-31T01:16:21;9.18;;;8.13;;
27003;SDS011;14546;47.590;19.022;2023-07-31T01:18:47;10.80;;;8.45;;
27003;SDS011;14546;47.590;19.022;2023-07-31T01:21:22;9.68;;;8.68;;
27003;SDS011;14546;47.590;19.022;2023-07-31T01:26:24;9.25;;;7.97;;
27003;SDS011;14546;47.590;19.022;2023-07-31T01:29:00;10.98;;;8.20;;
27003;SDS011;14546;47.590;19.022;2023-07-31T01:31:27;10.40;;;7.95;;
27003;SDS011;14546;47.590;19.022;2023-07-31T01:33:55;11.98;;;8.13;;
27003;SDS011;14546;47.590;19.022;2023-07-31T01:36:22;11.35;;;8.55;;
27003;SDS011;14546;47.590;19.022;2023-07-31T01:38:48;10.48;;;8.68;;
27003;SDS011;14546;47.590;19.022;2023-07-31T01:41:18;13.50;;;8.45;;
27003;SDS011;14546;47.590;19.022;2023-07-31T01:43:47;12.63;;;8.43;;
27003;SDS011;14546;47.590;19.022;2023-07-31T01:46:13;11.05;;;8.48;;
27003;SDS011;14546;47.590;19.022;2023-07-31T01:48:39;8.80;;;7.90;;
27003;SDS011;14546;47.590;19.022;2023-07-31T01:51:05;33.08;;;8.20;;
27003;SDS011;14546;47.590;19.022;2023-07-31T01:53:31;11.40;;;7.60;;
27003;SDS011;14546;47.590;19.022;2023-07-31T01:55:57;8.95;;;8.05;;
27003;SDS011;14546;47.590;19.022;2023-07-31T01:58:23;8.68;;;7.38;;
27003;SDS011;14546;47.590;19.022;2023-07-31T02:00:49;12.07;;;7.65;;
27003;SDS011;14546;47.590;19.022;2023-07-31T02:03:15;10.77;;;7.40;;
27003;SDS011;14546;47.590;19.022;2023-07-31T02:05:45;7.50;;;6.65;;
27003;SDS011;14546;47.590;19.022;2023-07-31T02:08:11;9.15;;;6.45;;
27003;SDS011;14546;47.590;19.022;2023-07-31T02:10:37;7.90;;;6.75;;
27003;SDS011;14546;47.590;19.022;2023-07-31T02:13:03;12.20;;;6.55;;
27003;SDS011;14546;47.590;19.022;2023-07-31T02:15:29;13.63;;;6.72;;
27003;SDS011;14546;47.590;19.022;2023-07-31T02:17:55;11.55;;;6.65;;
27003;SDS011;14546;47.590;19.022;2023-07-31T02:20:21;7.93;;;6.50;;
27003;SDS011;14546;47.590;19.022;2023-07-31T02:22:47;9.77;;;7.18;;
27003;SDS011;14546;47.590;19.022;2023-07-31T02:25:13;9.07;;;6.45;;
27003;SDS011;14546;47.590;19.022;2023-07-31T02:27:39;8.35;;;6.00;;
27003;SDS011;14546;47.590;19.022;2023-07-31T02:30:06;8.07;;;5.75;;
27003;SDS011;14546;47.590;19.022;2023-07-31T02:32:32;7.90;;;5.50;;
27003;SDS011;14546;47.590;19.022;2023-07-31T02:34:58;9.98;;;5.78;;
27003;SDS011;14546;47.590;19.022;2023-07-31T02:37:24;5.28;;;4.45;;
27003;SDS011;14546;47.590;19.022;2023-07-31T02:39:51;5.78;;;4.60;;
27003;SDS011;14546;47.590;19.022;2023-07-31T02:42:17;4.47;;;4.07;;
27003;SDS011;14546;47.590;19.022;2023-07-31T02:44:43;8.65;;;5.07;;
27003;SDS011;14546;47.590;19.022;2023-07-31T02:47:09;7.28;;;5.10;;
27003;SDS011;14546;47.590;19.022;2023-07-31T02:49:35;6.57;;;4.32;;
27003;SDS011;14546;47.590;19.022;2023-07-31T02:52:01;6.25;;;4.78;;
27003;SDS011;14546;47.590;19.022;2023-07-31T02:54:27;6.10;;;5.03;;
27003;SDS011;14546;47.590;19.022;2023-07-31T02:56:53;7.57;;;5.07;;
27003;SDS011;14546;47.590;19.022;2023-07-31T02:59:19;9.13;;;5.88;;
27003;SDS011;14546;47.590;19.022;2023-07-31T03:01:45;7.03;;;5.80;;
27003;SDS011;14546;47.590;19.022;2023-07-31T03:04:11;6.13;;;5.45;;
27003;SDS011;14546;47.590;19.022;2023-07-31T03:06:37;8.82;;;5.47;;
27003;SDS011;14546;47.590;19.022;2023-07-31T03:09:03;11.30;;;5.82;;
27003;SDS011;14546;47.590;19.022;2023-07-31T03:11:29;8.98;;;5.40;;
27003;SDS011;14546;47.590;19.022;2023-07-31T03:13:55;8.85;;;5.88;;
27003;SDS011;14546;47.590;19.022;2023-07-31T03:16:21;7.40;;;4.97;;
27003;SDS011;14546;47.590;19.022;2023-07-31T03:18:47;6.72;;;5.00;;
27003;SDS011;14546;47.590;19.022;2023-07-31T03:21:14;9.75;;;5.80;;
27003;SDS011;14546;47.590;19.022;2023-07-31T03:23:40;9.68;;;4.68;;
27003;SDS011;14546;47.590;19.022;2023-07-31T03:26:06;6.28;;;4.78;;
27003;SDS011;14546;47.590;19.022;2023-07-31T03:28:33;9.43;;;5.30;;
27003;SDS011;14546;47.590;19.022;2023-07-31T03:30:59;6.90;;;5.25;;
27003;SDS011;14546;47.590;19.022;2023-07-31T03:33:25;7.05;;;5.35;;
27003;SDS011;14546;47.590;19.022;2023-07-31T03:35:51;14.63;;;5.60;;
27003;SDS011;14546;47.590;19.022;2023-07-31T03:38:18;7.32;;;4.97;;
27003;SDS011;14546;47.590;19.022;2023-07-31T03:40:44;6.30;;;4.35;;
27003;SDS011;14546;47.590;19.022;2023-07-31T03:43:10;6.72;;;4.95;;
27003;SDS011;14546;47.590;19.022;2023-07-31T03:45:36;9.65;;;5.05;;
27003;SDS011;14546;47.590;19.022;2023-07-31T03:48:03;9.15;;;5.28;;
27003;SDS011;14546;47.590;19.022;2023-07-31T03:50:29;9.10;;;5.00;;
27003;SDS011;14546;47.590;19.022;2023-07-31T03:52:55;7.30;;;3.90;;
27003;SDS011;14546;47.590;19.022;2023-07-31T03:55:21;10.75;;;4.90;;
27003;SDS011;14546;47.590;19.022;2023-07-31T03:57:47;6.55;;;4.40;;
27003;SDS011;14546;47.590;19.022;2023-07-31T04:00:13;5.90;;;4.35;;
27003;SDS011;14546;47.590;19.022;2023-07-31T04:02:39;7.78;;;3.90;;
27003;SDS011;14546;47.590;19.022;2023-07-31T04:05:05;5.60;;;4.30;;
27003;SDS011;14546;47.590;19.022;2023-07-31T04:07:31;8.65;;;3.58;;
27003;SDS011;14546;47.590;19.022;2023-07-31T04:09:57;5.30;;;3.80;;
27003;SDS011;14546;47.590;19.022;2023-07-31T04:12:23;7.28;;;3.70;;
27003;SDS011;14546;47.590;19.022;2023-07-31T04:14:49;12.85;;;3.65;;
27003;SDS011;14546;47.590;19.022;2023-07-31T04:17:17;5.97;;;3.65;;
27003;SDS011;14546;47.590;19.022;2023-07-31T04:19:43;8.20;;;3.30;;
27003;SDS011;14546;47.590;19.022;2023-07-31T04:22:09;4.35;;;3.10;;
27003;SDS011;14546;47.590;19.022;2023-07-31T04:24:35;6.55;;;3.72;;
27003;SDS011;14546;47.590;19.022;2023-07-31T04:27:01;5.13;;;3.20;;
27003;SDS011;14546;47.590;19.022;2023-07-31T04:29:27;7.90;;;3.50;;
27003;SDS011;14546;47.590;19.022;2023-07-31T04:31:53;3.22;;;2.65;;
27003;SDS011;14546;47.590;19.022;2023-07-31T04:34:19;4.43;;;3.22;;
27003;SDS011;14546;47.590;19.022;2023-07-31T04:36:45;3.70;;;3.13;;
27003;SDS011;14546;47.590;19.022;2023-07-31T04:39:11;4.25;;;2.65;;
27003;SDS011;14546;47.590;19.022;2023-07-31T04:41:37;4.28;;;2.75;;
27003;SDS011;14546;47.590;19.022;2023-07-31T04:44:03;3.95;;;2.88;;
27003;SDS011;14546;47.590;19.022;2023-07-31T04:46:29;4.80;;;2.80;;
27003;SDS011;14546;47.590;19.022;2023-07-31T04:48:55;9.82;;;3.03;;
27003;SDS011;14546;47.590;19.022;2023-07-31T04:51:22;5.40;;;3.03;;
27003;SDS011;14546;47.590;19.022;2023-07-31T04:53:48;9.25;;;3.10;;
27003;SDS011;14546;47.590;19.022;2023-07-31T04:56:14;11.38;;;3.20;;
27003;SDS011;14546;47.590;19.022;2023-07-31T04:58:41;5.45;;;2.90;;
27003;SDS011;14546;47.590;19.022;2023-07-31T05:01:07;5.90;;;3.15;;
27003;SDS011;14546;47.590;19.022;2023-07-31T05:03:33;4.00;;;2.90;;
27003;SDS011;14546;47.590;19.022;2023-07-31T05:05:59;5.78;;;2.70;;
27003;SDS011;14546;47.590;19.022;2023-07-31T05:08:25;6.28;;;2.90;;
27003;SDS011;14546;47.590;19.022;2023-07-31T05:10:51;4.30;;;3.03;;
27003;SDS011;14546;47.590;19.022;2023-07-31T05:13:17;4.68;;;2.78;;
27003;SDS011;14546;47.590;19.022;2023-07-31T05:15:43;7.30;;;2.85;;
27003;SDS011;14546;47.590;19.022;2023-07-31T05:18:09;5.43;;;2.40;;
27003;SDS011;14546;47.590;19.022;2023-07-31T05:20:35;11.10;;;2.67;;
27003;SDS011;14546;47.590;19.022;2023-07-31T05:23:01;3.70;;;1.90;;
27003;SDS011;14546;47.590;19.022;2023-07-31T05:25:27;5.05;;;2.00;;
27003;SDS011;14546;47.590;19.022;2023-07-31T05:27:53;3.83;;;1.90;;
27003;SDS011;14546;47.590;19.022;2023-07-31T05:30:19;5.82;;;2.28;;
27003;SDS011;14546;47.590;19.022;2023-07-31T05:32:46;5.65;;;2.47;;
27003;SDS011;14546;47.590;19.022;2023-07-31T05:35:12;2.63;;;2.03;;
27003;SDS011;14546;47.590;19.022;2023-07-31T05:37:38;10.95;;;2.28;;
27003;SDS011;14546;47.590;19.022;2023-07-31T05:40:04;6.93;;;2.15;;
27003;SDS011;14546;47.590;19.022;2023-07-31T05:42:31;7.10;;;2.50;;
27003;SDS011;14546;47.590;19.022;2023-07-31T05:44:57;6.60;;;2.50;;
27003;SDS011;14546;47.590;19.022;2023-07-31T05:47:23;6.47;;;2.42;;
27003;SDS011;14546;47.590;19.022;2023-07-31T05:49:49;3.75;;;2.20;;
27003;SDS011;14546;47.590;19.022;2023-07-31T05:52:17;4.20;;;2.30;;
27003;SDS011;14546;47.590;19.022;2023-07-31T05:54:43;4.82;;;2.35;;
27003;SDS011;14546;47.590;19.022;2023-07-31T05:57:11;3.90;;;2.42;;
27003;SDS011;14546;47.590;19.022;2023-07-31T05:59:37;11.65;;;2.25;;
27003;SDS011;14546;47.590;19.022;2023-07-31T06:02:03;9.52;;;2.53;;
27003;SDS011;14546;47.590;19.022;2023-07-31T06:04:29;5.50;;;2.45;;
27003;SDS011;14546;47.590;19.022;2023-07-31T06:06:56;4.68;;;2.80;;
27003;SDS011;14546;47.590;19.022;2023-07-31T06:09:22;3.67;;;2.30;;
27003;SDS011;14546;47.590;19.022;2023-07-31T06:11:48;14.93;;;2.90;;
27003;SDS011;14546;47.590;19.022;2023-07-31T06:14:14;3.88;;;2.20;;
27003;SDS011;14546;47.590;19.022;2023-07-31T06:16:40;11.27;;;2.58;;
27003;SDS011;14546;47.590;19.022;2023-07-31T06:19:06;5.22;;;2.35;;
27003;SDS011;14546;47.590;19.022;2023-07-31T06:21:32;4.22;;;2.30;;
27003;SDS011;14546;47.590;19.022;2023-07-31T06:23:58;3.55;;;2.00;;
27003;SDS011;14546;47.590;19.022;2023-07-31T06:26:24;3.75;;;1.90;;
27003;SDS011;14546;47.590;19.022;2023-07-31T06:28:50;4.07;;;1.90;;
27003;SDS011;14546;47.590;19.022;2023-07-31T06:31:16;8.75;;;2.53;;
27003;SDS011;14546;47.590;19.022;2023-07-31T06:33:45;4.57;;;2.55;;
27003;SDS011;14546;47.590;19.022;2023-07-31T06:36:11;5.68;;;2.28;;
27003;SDS011;14546;47.590;19.022;2023-07-31T06:38:37;4.95;;;1.90;;
27003;SDS011;14546;47.590;19.022;2023-07-31T06:41:03;8.88;;;2.17;;
27003;SDS011;14546;47.590;19.022;2023-07-31T06:43:29;5.05;;;2.20;;
27003;SDS011;14546;47.590;19.022;2023-07-31T06:45:55;4.90;;;2.22;;
27003;SDS011;14546;47.590;19.022;2023-07-31T06:48:21;4.85;;;2.47;;
27003;SDS011;14546;47.590;19.022;2023-07-31T06:50:47;7.35;;;2.00;;
27003;SDS011;14546;47.590;19.022;2023-07-31T06:53:13;5.28;;;2.33;;
27003;SDS011;14546;47.590;19.022;2023-07-31T06:55:39;6.93;;;2.00;;
27003;SDS011;14546;47.590;19.022;2023-07-31T06:58:05;6.72;;;1.90;;
27003;SDS011;14546;47.590;19.022;2023-07-31T07:00:31;2.80;;;1.95;;
27003;SDS011;14546;47.590;19.022;2023-07-31T07:02:57;4.30;;;2.08;;
27003;SDS011;14546;47.590;19.022;2023-07-31T07:05:24;3.55;;;2.10;;
27003;SDS011;14546;47.590;19.022;2023-07-31T07:07:50;6.30;;;2.05;;
27003;SDS011;14546;47.590;19.022;2023-07-31T07:10:18;7.70;;;1.98;;
27003;SDS011;14546;47.590;19.022;2023-07-31T07:12:45;4.40;;;1.98;;
27003;SDS011;14546;47.590;19.022;2023-07-31T07:15:11;4.57;;;2.00;;
27003;SDS011;14546;47.590;19.022;2023-07-31T07:17:37;5.22;;;2.30;;
27003;SDS011;14546;47.590;19.022;2023-07-31T07:20:03;5.95;;;1.90;;
27003;SDS011;14546;47.590;19.022;2023-07-31T07:22:29;4.10;;;2.22;;
27003;SDS011;14546;47.590;19.022;2023-07-31T07:24:55;5.63;;;1.98;;
27003;SDS011;14546;47.590;19.022;2023-07-31T07:27:21;8.32;;;2.05;;
27003;SDS011;14546;47.590;19.022;2023-07-31T07:29:49;3.47;;;1.88;;
27003;SDS011;14546;47.590;19.022;2023-07-31T07:32:16;5.65;;;2.45;;
27003;SDS011;14546;47.590;19.022;2023-07-31T07:34:43;3.25;;;1.83;;
27003;SDS011;14546;47.590;19.022;2023-07-31T07:37:09;3.40;;;1.90;;
27003;SDS011;14546;47.590;19.022;2023-07-31T07:39:35;3.00;;;1.80;;
27003;SDS011;14546;47.590;19.022;2023-07-31T07:42:01;2.75;;;1.52;;
27003;SDS011;14546;47.590;19.022;2023-07-31T07:44:27;4.13;;;1.85;;
27003;SDS011;14546;47.590;19.022;2023-07-31T07:46:53;2.90;;;1.92;;
27003;SDS011;14546;47.590;19.022;2023-07-31T07:49:19;3.17;;;1.73;;
27003;SDS011;14546;47.590;19.022;2023-07-31T07:51:47;9.48;;;1.80;;
27003;SDS011;14546;47.590;19.022;2023-07-31T07:54:13;5.60;;;1.88;;
27003;SDS011;14546;47.590;19.022;2023-07-31T07:56:39;3.63;;;2.00;;
27003;SDS011;14546;47.590;19.022;2023-07-31T07:59:06;3.63;;;1.45;;
27003;SDS011;14546;47.590;19.022;2023-07-31T08:01:32;6.35;;;1.77;;
27003;SDS011;14546;47.590;19.022;2023-07-31T08:03:58;4.00;;;1.50;;
27003;SDS011;14546;47.590;19.022;2023-07-31T08:06:24;4.18;;;1.92;;
27003;SDS011;14546;47.590;19.022;2023-07-31T08:08:50;4.82;;;1.83;;
27003;SDS011;14546;47.590;19.022;2023-07-31T08:11:16;5.63;;;1.63;;
27003;SDS011;14546;47.590;19.022;2023-07-31T08:13:42;3.50;;;1.50;;
27003;SDS011;14546;47.590;19.022;2023-07-31T08:16:08;4.50;;;1.65;;
27003;SDS011;14546;47.590;19.022;2023-07-31T08:18:34;4.90;;;1.88;;
27003;SDS011;14546;47.590;19.022;2023-07-31T08:21:01;5.60;;;1.70;;
27003;SDS011;14546;47.590;19.022;2023-07-31T08:23:28;3.22;;;1.80;;
27003;SDS011;14546;47.590;19.022;2023-07-31T08:25:54;3.75;;;1.60;;
27003;SDS011;14546;47.590;19.022;2023-07-31T08:28:20;4.93;;;1.70;;
27003;SDS011;14546;47.590;19.022;2023-07-31T08:30:46;4.10;;;1.63;;
27003;SDS011;14546;47.590;19.022;2023-07-31T08:33:12;4.75;;;2.00;;
27003;SDS011;14546;47.590;19.022;2023-07-31T08:35:38;7.00;;;1.95;;
27003;SDS011;14546;47.590;19.022;2023-07-31T08:38:04;7.13;;;2.28;;
27003;SDS011;14546;47.590;19.022;2023-07-31T08:40:30;5.63;;;1.92;;
27003;SDS011;14546;47.590;19.022;2023-07-31T08:42:56;3.40;;;1.55;;
27003;SDS011;14546;47.590;19.022;2023-07-31T08:45:27;6.50;;;1.80;;
27003;SDS011;14546;47.590;19.022;2023-07-31T08:47:53;3.83;;;1.30;;
27003;SDS011;14546;47.590;19.022;2023-07-31T08:50:21;5.18;;;1.80;;
27003;SDS011;14546;47.590;19.022;2023-07-31T08:52:48;3.72;;;1.73;;
27003;SDS011;14546;47.590;19.022;2023-07-31T08:55:14;6.93;;;1.90;;
27003;SDS011;14546;47.590;19.022;2023-07-31T08:57:40;4.60;;;1.80;;
27003;SDS011;14546;47.590;19.022;2023-07-31T09:00:07;5.45;;;1.98;;
27003;SDS011;14546;47.590;19.022;2023-07-31T09:05:06;9.43;;;2.00;;
27003;SDS011;14546;47.590;19.022;2023-07-31T09:07:33;8.18;;;1.77;;
27003;SDS011;14546;47.590;19.022;2023-07-31T09:10:00;6.13;;;1.80;;
27003;SDS011;14546;47.590;19.022;2023-07-31T09:12:26;4.82;;;1.63;;
27003;SDS011;14546;47.590;19.022;2023-07-31T09:14:53;8.07;;;2.28;;
27003;SDS011;14546;47.590;19.022;2023-07-31T09:17:28;3.63;;;1.63;;
27003;SDS011;14546;47.590;19.022;2023-07-31T09:19:55;6.10;;;1.60;;
27003;SDS011;14546;47.590;19.022;2023-07-31T09:22:31;5.22;;;1.70;;
27003;SDS011;14546;47.590;19.022;2023-07-31T09:25:03;4.35;;;1.67;;
27003;SDS011;14546;47.590;19.022;2023-07-31T09:27:36;7.70;;;2.20;;
27003;SDS011;14546;47.590;19.022;2023-07-31T09:30:11;5.53;;;2.08;;
27003;SDS011;14546;47.590;19.022;2023-07-31T09:32:37;4.93;;;1.90;;
27003;SDS011;14546;47.590;19.022;2023-07-31T09:35:27;7.75;;;2.00;;
27003;SDS011;14546;47.590;19.022;2023-07-31T09:37:54;11.63;;;1.90;;
27003;SDS011;14546;47.590;19.022;2023-07-31T09:40:27;7.32;;;1.95;;
27003;SDS011;14546;47.590;19.022;2023-07-31T09:42:58;6.13;;;2.00;;
27003;SDS011;14546;47.590;19.022;2023-07-31T09:45:25;3.83;;;1.70;;
27003;SDS011;14546;47.590;19.022;2023-07-31T09:47:51;5.53;;;1.80;;
27003;SDS011;14546;47.590;19.022;2023-07-31T09:50:17;6.97;;;1.85;;
27003;SDS011;14546;47.590;19.022;2023-07-31T09:52:44;8.25;;;1.65;;
27003;SDS011;14546;47.590;19.022;2023-07-31T09:55:10;3.45;;;1.50;;
27003;SDS011;14546;47.590;19.022;2023-07-31T09:57:38;4.53;;;1.60;;
27003;SDS011;14546;47.590;19.022;2023-07-31T10:00:05;4.43;;;1.45;;
27003;SDS011;14546;47.590;19.022;2023-07-31T10:02:34;5.10;;;2.22;;
27003;SDS011;14546;47.590;19.022;2023-07-31T10:05:01;6.30;;;2.58;;
27003;SDS011;14546;47.590;19.022;2023-07-31T10:07:28;8.35;;;1.85;;
27003;SDS011;14546;47.590;19.022;2023-07-31T10:09:56;7.35;;;1.63;;
27003;SDS011;14546;47.590;19.022;2023-07-31T10:12:23;5.65;;;1.55;;
27003;SDS011;14546;47.590;19.022;2023-07-31T10:14:53;8.77;;;2.22;;
27003;SDS011;14546;47.590;19.022;2023-07-31T10:17:19;8.70;;;2.15;;
27003;SDS011;14546;47.590;19.022;2023-07-31T10:19:46;8.07;;;1.98;;
27003;SDS011;14546;47.590;19.022;2023-07-31T10:22:13;30.58;;;2.83;;
27003;SDS011;14546;47.590;19.022;2023-07-31T10:24:40;4.70;;;1.63;;
27003;SDS011;14546;47.590;19.022;2023-07-31T10:27:08;5.70;;;2.00;;
27003;SDS011;14546;47.590;19.022;2023-07-31T10:29:36;7.80;;;1.75;;
27003;SDS011;14546;47.590;19.022;2023-07-31T10:32:02;8.73;;;2.35;;
27003;SDS011;14546;47.590;19.022;2023-07-31T10:34:31;7.95;;;1.60;;
27003;SDS011;14546;47.590;19.022;2023-07-31T10:39:42;7.85;;;1.90;;
27003;SDS011;14546;47.590;19.022;2023-07-31T10:42:14;4.00;;;1.80;;
27003;SDS011;14546;47.590;19.022;2023-07-31T10:44:44;4.53;;;1.70;;
27003;SDS011;14546;47.590;19.022;2023-07-31T10:47:10;7.00;;;2.03;;
27003;SDS011;14546;47.590;19.022;2023-07-31T10:49:40;3.03;;;1.17;;
27003;SDS011;14546;47.590;19.022;2023-07-31T10:52:10;5.65;;;1.52;;
27003;SDS011;14546;47.590;19.022;2023-07-31T10:54:36;11.05;;;1.60;;
27003;SDS011;14546;47.590;19.022;2023-07-31T10:57:02;6.03;;;1.77;;
27003;SDS011;14546;47.590;19.022;2023-07-31T10:59:44;4.05;;;1.80;;
27003;SDS011;14546;47.590;19.022;2023-07-31T11:02:19;3.60;;;1.55;;
27003;SDS011;14546;47.590;19.022;2023-07-31T11:05:11;5.20;;;1.67;;
27003;SDS011;14546;47.590;19.022;2023-07-31T11:07:46;6.28;;;2.00;;
27003;SDS011;14546;47.590;19.022;2023-07-31T11:10:15;7.07;;;1.52;;
27003;SDS011;14546;47.590;19.022;2023-07-31T11:12:41;7.32;;;1.60;;
27003;SDS011;14546;47.590;19.022;2023-07-31T11:15:07;9.18;;;1.73;;
27003;SDS011;14546;47.590;19.022;2023-07-31T11:17:38;6.75;;;1.92;;
27003;SDS011;14546;47.590;19.022;2023-07-31T11:20:04;6.68;;;1.60;;
27003;SDS011;14546;47.590;19.022;2023-07-31T11:22:30;11.45;;;1.67;;
27003;SDS011;14546;47.590;19.022;2023-07-31T11:24:56;3.42;;;1.60;;
27003;SDS011;14546;47.590;19.022;2023-07-31T11:27:22;3.83;;;1.52;;
27003;SDS011;14546;47.590;19.022;2023-07-31T11:29:50;4.18;;;1.77;;
27003;SDS011;14546;47.590;19.022;2023-07-31T11:32:16;2.30;;;1.27;;
27003;SDS011;14546;47.590;19.022;2023-07-31T11:34:55;2.78;;;1.58;;
27003;SDS011;14546;47.590;19.022;2023-07-31T11:37:21;5.65;;;1.67;;
27003;SDS011;14546;47.590;19.022;2023-07-31T11:40:00;6.90;;;1.70;;
27003;SDS011;14546;47.590;19.022;2023-07-31T11:42:26;4.95;;;1.55;;
27003;SDS011;14546;47.590;19.022;2023-07-31T11:44:52;4.63;;;1.65;;
27003;SDS011;14546;47.590;19.022;2023-07-31T11:47:18;4.15;;;1.30;;
27003;SDS011;14546;47.590;19.022;2023-07-31T11:49:44;4.28;;;1.73;;
27003;SDS011;14546;47.590;19.022;2023-07-31T11:52:10;3.90;;;1.60;;
27003;SDS011;14546;47.590;19.022;2023-07-31T11:54:37;5.70;;;1.45;;
27003;SDS011;14546;47.590;19.022;2023-07-31T11:57:03;11.38;;;1.90;;
27003;SDS011;14546;47.590;19.022;2023-07-31T11:59:30;3.53;;;1.50;;
27003;SDS011;14546;47.590;19.022;2023-07-31T12:01:56;3.58;;;1.15;;
27003;SDS011;14546;47.590;19.022;2023-07-31T12:04:22;4.47;;;1.35;;
27003;SDS011;14546;47.590;19.022;2023-07-31T12:06:49;3.28;;;1.40;;
27003;SDS011;14546;47.590;19.022;2023-07-31T12:09:15;3.55;;;1.15;;
27003;SDS011;14546;47.590;19.022;2023-07-31T12:11:47;3.10;;;1.20;;
27003;SDS011;14546;47.590;19.022;2023-07-31T12:14:26;5.65;;;1.30;;
27003;SDS011;14546;47.590;19.022;2023-07-31T12:16:59;5.78;;;1.50;;
27003;SDS011;14546;47.590;19.022;2023-07-31T12:19:25;7.80;;;1.67;;
27003;SDS011;14546;47.590;19.022;2023-07-31T12:21:57;6.70;;;1.35;;
27003;SDS011;14546;47.590;19.022;2023-07-31T12:24:24;3.42;;;1.30;;
27003;SDS011;14546;47.590;19.022;2023-07-31T12:26:50;3.72;;;1.50;;
27003;SDS011;14546;47.590;19.022;2023-07-31T12:29:17;4.28;;;1.90;;
27003;SDS011;14546;47.590;19.022;2023-07-31T12:31:43;6.53;;;1.55;;
27003;SDS011;14546;47.590;19.022;2023-07-31T12:34:16;4.55;;;1.58;;
27003;SDS011;14546;47.590;19.022;2023-07-31T12:36:43;4.05;;;1.60;;
27003;SDS011;14546;47.590;19.022;2023-07-31T12:39:09;5.57;;;1.40;;
27003;SDS011;14546;47.590;19.022;2023-07-31T12:41:35;5.22;;;1.45;;
27003;SDS011;14546;47.590;19.022;2023-07-31T12:44:02;5.15;;;1.70;;
27003;SDS011;14546;47.590;19.022;2023-07-31T12:46:28;6.40;;;1.42;;
27003;SDS011;14546;47.590;19.022;2023-07-31T12:48:54;3.53;;;1.20;;
27003;SDS011;14546;47.590;19.022;2023-07-31T12:51:20;2.97;;;1.55;;
27003;SDS011;14546;47.590;19.022;2023-07-31T12:53:47;5.03;;;1.40;;
27003;SDS011;14546;47.590;19.022;2023-07-31T12:56:13;2.95;;;1.40;;
27003;SDS011;14546;47.590;19.022;2023-07-31T12:58:39;6.10;;;1.33;;
27003;SDS011;14546;47.590;19.022;2023-07-31T13:01:05;2.42;;;1.33;;
27003;SDS011;14546;47.590;19.022;2023-07-31T13:03:31;5.13;;;1.60;;
27003;SDS011;14546;47.590;19.022;2023-07-31T13:05:57;2.50;;;1.30;;
27003;SDS011;14546;47.590;19.022;2023-07-31T13:08:23;4.05;;;1.48;;
27003;SDS011;14546;47.590;19.022;2023-07-31T13:10:49;6.07;;;2.05;;
27003;SDS011;14546;47.590;19.022;2023-07-31T13:13:15;2.60;;;1.40;;
27003;SDS011;14546;47.590;19.022;2023-07-31T13:15:41;2.72;;;1.10;;
27003;SDS011;14546;47.590;19.022;2023-07-31T13:18:07;3.28;;;1.40;;
27003;SDS011;14546;47.590;19.022;2023-07-31T13:20:33;3.53;;;1.55;;
27003;SDS011;14546;47.590;19.022;2023-07-31T13:22:59;3.30;;;1.33;;
27003;SDS011;14546;47.590;19.022;2023-07-31T13:25:25;9.15;;;1.92;;
27003;SDS011;14546;47.590;19.022;2023-07-31T13:27:52;5.05;;;1.33;;
27003;SDS011;14546;47.590;19.022;2023-07-31T13:30:18;3.13;;;1.40;;
27003;SDS011;14546;47.590;19.022;2023-07-31T13:32:44;2.40;;;1.13;;
27003;SDS011;14546;47.590;19.022;2023-07-31T13:35:10;15.77;;;1.70;;
27003;SDS011;14546;47.590;19.022;2023-07-31T13:37:37;5.53;;;1.50;;
27003;SDS011;14546;47.590;19.022;2023-07-31T13:40:03;3.30;;;1.40;;
27003;SDS011;14546;47.590;19.022;2023-07-31T13:42:30;7.25;;;1.58;;
27003;SDS011;14546;47.590;19.022;2023-07-31T13:44:56;4.43;;;1.50;;
27003;SDS011;14546;47.590;19.022;2023-07-31T13:47:22;3.60;;;1.60;;
27003;SDS011;14546;47.590;19.022;2023-07-31T13:49:48;8.93;;;1.70;;
27003;SDS011;14546;47.590;19.022;2023-07-31T13:52:14;6.25;;;1.48;;
27003;SDS011;14546;47.590;19.022;2023-07-31T13:54:40;6.53;;;1.60;;
27003;SDS011;14546;47.590;19.022;2023-07-31T13:57:07;9.43;;;1.60;;
27003;SDS011;14546;47.590;19.022;2023-07-31T13:59:34;6.50;;;2.13;;
27003;SDS011;14546;47.590;19.022;2023-07-31T14:02:00;3.15;;;1.63;;
27003;SDS011;14546;47.590;19.022;2023-07-31T14:04:26;3.67;;;1.55;;
27003;SDS011;14546;47.590;19.022;2023-07-31T14:06:52;2.17;;;1.40;;
27003;SDS011;14546;47.590;19.022;2023-07-31T14:09:18;3.45;;;1.42;;
27003;SDS011;14546;47.590;19.022;2023-07-31T14:11:44;3.45;;;1.42;;
27003;SDS011;14546;47.590;19.022;2023-07-31T14:14:10;3.20;;;1.45;;
27003;SDS011;14546;47.590;19.022;2023-07-31T14:16:36;3.25;;;1.38;;
27003;SDS011;14546;47.590;19.022;2023-07-31T14:19:02;7.80;;;1.85;;
27003;SDS011;14546;47.590;19.022;2023-07-31T14:21:28;2.92;;;1.92;;
27003;SDS011;14546;47.590;19.022;2023-07-31T14:23:54;3.58;;;1.45;;
27003;SDS011;14546;47.590;19.022;2023-07-31T14:26:20;4.72;;;2.08;;
27003;SDS011;14546;47.590;19.022;2023-07-31T14:28:46;5.38;;;1.30;;
27003;SDS011;14546;47.590;19.022;2023-07-31T14:31:12;7.75;;;1.52;;
27003;SDS011;14546;47.590;19.022;2023-07-31T14:33:38;5.28;;;1.52;;
27003;SDS011;14546;47.590;19.022;2023-07-31T14:36:05;3.60;;;1.35;;
27003;SDS011;14546;47.590;19.022;2023-07-31T14:38:31;2.85;;;1.30;;
27003;SDS011;14546;47.590;19.022;2023-07-31T14:40:57;6.70;;;1.33;;